createdAt,value
2023-01-11T00:03:25.243Z,12.47
2023-01-11T00:08:29.155Z,12.47
2023-01-11T00:13:34.944Z,12.45
2023-01-11T00:18:38.637Z,12.44
2023-01-11T00:23:42.362Z,12.42
2023-01-11T00:28:49.403Z,12.39
2023-01-11T00:33:53.196Z,12.37
2023-01-11T00:38:56.755Z,12.35
2023-01-11T00:44:00.415Z,12.32
2023-01-11T00:49:03.882Z,12.32
2023-01-11T00:54:07.569Z,12.26
2023-01-11T00:59:10.850Z,12.18
2023-01-11T01:04:15.537Z,12.12
2023-01-11T01:09:19.731Z,12.06
2023-01-11T01:14:23.026Z,12.00
2023-01-11T01:19:26.420Z,11.96
2023-01-11T01:24:30.330Z,11.94
2023-01-11T01:29:33.850Z,11.91
2023-01-11T01:34:40.207Z,11.86
2023-01-11T01:39:43.663Z,11.84
2023-01-11T01:45:00.965Z,11.83
2023-01-11T01:50:18.249Z,11.82
2023-01-11T01:55:31.956Z,11.85
2023-01-11T02:00:35.589Z,11.90
2023-01-11T02:05:39.295Z,11.93
2023-01-11T02:10:43.346Z,11.94
2023-01-11T02:15:47.496Z,11.98
2023-01-11T02:21:17.234Z,12.01
2023-01-11T02:26:39.335Z,12.03
2023-01-11T02:31:56.229Z,12.03
2023-01-11T02:37:31.333Z,12.00
2023-01-11T02:42:49.081Z,11.93
2023-01-11T02:48:00.499Z,11.84
2023-01-11T02:53:24.608Z,11.74
2023-01-11T02:58:33.497Z,11.70
2023-01-11T03:03:37.115Z,11.67
2023-01-11T03:09:14.805Z,11.69
2023-01-11T03:14:18.065Z,11.66
2023-01-11T03:19:24.224Z,11.60
2023-01-11T03:24:52.948Z,11.53
2023-01-11T03:30:09.622Z,11.42
2023-01-11T03:35:27.057Z,11.36
2023-01-11T03:41:06.011Z,11.30
2023-01-11T03:46:17.545Z,11.34
2023-01-11T03:51:30.476Z,11.35
2023-01-11T03:57:10.862Z,11.33
2023-01-11T04:02:19.721Z,11.31
2023-01-11T04:07:23.079Z,11.25
2023-01-11T04:12:26.758Z,11.18
2023-01-11T04:17:30.175Z,11.11
2023-01-11T04:22:33.549Z,11.03
2023-01-11T04:27:38.103Z,10.97
2023-01-11T04:32:42.811Z,10.92
2023-01-11T04:37:46.209Z,10.88
2023-01-11T04:42:49.824Z,10.91
2023-01-11T04:47:56.837Z,10.97
2023-01-11T04:53:00.187Z,11.08
2023-01-11T04:58:03.597Z,11.11
2023-01-11T05:03:06.779Z,11.18
2023-01-11T05:08:10.132Z,11.32
2023-01-11T05:13:13.391Z,11.29
2023-01-11T05:18:16.867Z,11.32
2023-01-11T05:23:20.137Z,11.48
2023-01-11T05:28:23.055Z,11.53
2023-01-11T05:33:26.647Z,11.58
2023-01-11T05:38:30.516Z,11.61
2023-01-11T05:43:34.516Z,11.64
2023-01-11T05:48:38.611Z,11.60
2023-01-11T05:53:42.389Z,11.78
2023-01-11T05:58:48.670Z,11.86
2023-01-11T06:03:52.740Z,11.91
2023-01-11T06:08:56.273Z,11.95
2023-01-11T06:13:59.827Z,12.18
2023-01-11T06:19:05.029Z,12.52
2023-01-11T06:24:09.588Z,12.43
2023-01-11T06:29:13.031Z,12.38
2023-01-11T06:34:16.789Z,12.38
2023-01-11T06:39:20.305Z,12.57
2023-01-11T06:44:25.420Z,12.80
2023-01-11T06:49:28.474Z,12.88
2023-01-11T06:54:32.010Z,12.98
2023-01-11T06:59:36.461Z,13.08
2023-01-11T07:04:39.519Z,13.11
2023-01-11T07:09:43.038Z,13.15
2023-01-11T07:14:46.526Z,13.17
2023-01-11T07:19:49.994Z,13.20
2023-01-11T07:24:53.452Z,13.18
2023-01-11T07:29:56.836Z,13.19
2023-01-11T07:34:59.914Z,13.25
2023-01-11T07:40:03.005Z,13.26
2023-01-11T07:45:07.809Z,13.29
2023-01-11T07:50:11.407Z,13.31
2023-01-11T07:55:15.413Z,13.30
2023-01-11T08:00:19.429Z,13.26
2023-01-11T08:05:24.458Z,13.21
2023-01-11T08:10:27.825Z,13.27
2023-01-11T08:15:33.028Z,13.35
2023-01-11T08:20:37.120Z,13.46
2023-01-11T08:25:40.564Z,13.61
2023-01-11T08:30:43.728Z,13.74
2023-01-11T08:35:49.537Z,14.04
2023-01-11T08:40:53.191Z,14.30
2023-01-11T08:45:56.721Z,14.40
2023-01-11T08:51:00.068Z,14.46
2023-01-11T08:56:03.534Z,14.60
2023-01-11T09:01:07.010Z,14.57
2023-01-11T09:06:12.647Z,14.50
2023-01-11T09:11:15.737Z,14.43
2023-01-11T09:16:19.177Z,14.39
2023-01-11T09:21:25.822Z,14.40
2023-01-11T09:26:29.623Z,14.48
2023-01-11T09:31:33.151Z,14.67
2023-01-11T09:36:36.866Z,14.73
2023-01-11T09:42:22.803Z,14.69
2023-01-11T09:47:47.839Z,14.61
2023-01-11T09:52:58.706Z,14.69
2023-01-11T09:58:13.942Z,14.77
2023-01-11T10:03:32.014Z,14.73
2023-01-11T10:18:22.128Z,14.87
2023-01-11T10:20:01.018Z,15.03
2023-01-11T10:25:15.397Z,15.14
2023-01-11T10:30:20.825Z,15.09
2023-01-11T10:35:30.036Z,15.09
2023-01-11T10:40:58.982Z,14.99
2023-01-11T10:46:14.007Z,15.14
2023-01-11T10:51:33.021Z,15.28
2023-01-11T10:57:03.017Z,15.48
2023-01-11T11:02:25.428Z,15.44
2023-01-11T11:07:46.640Z,15.50
2023-01-11T11:13:15.243Z,15.48
2023-01-11T11:18:19.433Z,15.41
2023-01-11T11:23:25.444Z,15.39
2023-01-11T11:28:33.188Z,15.42
2023-01-11T11:33:39.150Z,15.43
2023-01-11T11:39:05.700Z,15.48
2023-01-11T11:44:27.464Z,15.50
2023-01-11T11:49:33.378Z,15.62
2023-01-11T11:54:41.119Z,15.67
2023-01-11T11:59:48.449Z,15.61
2023-01-11T12:04:54.019Z,15.51
2023-01-11T12:10:02.984Z,15.50
2023-01-11T12:15:16.845Z,15.48
2023-01-11T12:20:23.359Z,15.47
2023-01-11T12:25:28.340Z,15.50
2023-01-11T12:30:40.996Z,15.56
2023-01-11T12:36:12.372Z,15.53
2023-01-11T12:41:21.499Z,15.49
2023-01-11T12:47:01.998Z,15.44
2023-01-11T12:52:36.499Z,15.42
2023-01-11T12:57:59.378Z,15.40
2023-01-11T13:03:14.591Z,15.39
2023-01-11T13:08:44.751Z,15.38
2023-01-11T13:14:01.820Z,15.34
2023-01-11T13:19:21.478Z,15.31
2023-01-11T13:24:31.638Z,15.21
2023-01-11T13:29:44.261Z,15.17
2023-01-11T13:34:59.977Z,15.10
2023-01-11T13:40:24.600Z,15.04
2023-01-11T13:45:37.935Z,14.99
2023-01-11T13:50:51.657Z,14.90
2023-01-11T13:56:00.021Z,14.80
2023-01-11T14:01:21.834Z,14.72
2023-01-11T14:06:44.129Z,14.68
2023-01-11T14:12:05.729Z,14.65
2023-01-11T14:17:47.515Z,14.59
2023-01-11T14:22:56.492Z,14.53
2023-01-11T14:28:25.737Z,14.49
2023-01-11T14:33:29.479Z,14.42
2023-01-11T14:38:41.635Z,14.35
2023-01-11T14:44:00.326Z,14.29
2023-01-11T14:49:31.231Z,14.21
2023-01-11T14:54:45.566Z,14.14
2023-01-11T14:59:49.905Z,14.08
2023-01-11T15:04:53.281Z,14.02
2023-01-11T15:10:00.340Z,13.98
2023-01-11T15:15:08.484Z,13.96
2023-01-11T15:20:15.504Z,13.92
2023-01-11T15:25:25.140Z,13.91
2023-01-11T15:30:31.609Z,13.91
2023-01-11T15:35:35.640Z,13.93
2023-01-11T15:40:44.282Z,13.94
2023-01-11T15:45:54.424Z,13.95
2023-01-11T15:51:26.255Z,13.95
2023-01-11T15:56:35.311Z,13.94
2023-01-11T16:02:14.188Z,13.93
2023-01-11T16:07:36.045Z,13.92
2023-01-11T16:13:16.455Z,13.89
2023-01-11T16:18:23.082Z,13.88
2023-01-11T16:23:30.177Z,13.86
2023-01-11T16:28:33.951Z,13.83
2023-01-11T16:33:37.384Z,13.77
2023-01-11T16:39:00.833Z,13.78
2023-01-11T16:44:09.219Z,13.75
2023-01-11T16:49:19.761Z,13.72
2023-01-11T16:54:33.714Z,13.78
2023-01-11T16:59:37.480Z,13.83
2023-01-11T17:04:51.979Z,13.87
2023-01-11T17:10:15.695Z,13.94
2023-01-11T17:15:57.686Z,14.00
2023-01-11T17:21:01.264Z,13.94
2023-01-11T17:26:08.992Z,13.91
2023-01-11T17:31:26.783Z,13.82
2023-01-11T17:36:32.222Z,13.70
2023-01-11T17:41:37.249Z,13.60
2023-01-11T17:46:40.817Z,13.48
2023-01-11T17:51:47.929Z,13.39
2023-01-11T17:56:58.801Z,13.28
2023-01-11T18:02:11.374Z,13.21
2023-01-11T18:07:19.774Z,13.14
2023-01-11T18:12:33.543Z,13.12
2023-01-11T18:17:39.782Z,13.09
2023-01-11T18:22:58.056Z,13.06
2023-01-11T18:28:29.543Z,13.03
2023-01-11T18:33:34.395Z,12.96
2023-01-11T18:38:37.645Z,12.96
2023-01-11T18:43:40.677Z,12.93
2023-01-11T18:48:44.003Z,12.94
2023-01-11T18:53:47.411Z,12.93
2023-01-11T18:58:51.225Z,12.90
2023-01-11T19:03:54.769Z,12.89
2023-01-11T19:08:58.348Z,12.85
2023-01-11T19:14:03.498Z,12.78
2023-01-11T19:19:07.305Z,12.73
2023-01-11T19:24:12.285Z,12.67
2023-01-11T19:29:15.896Z,12.62
2023-01-11T19:34:20.248Z,12.57
2023-01-11T19:39:25.097Z,12.50
2023-01-11T19:44:32.539Z,12.44
2023-01-11T19:49:35.969Z,12.38
2023-01-11T19:54:43.244Z,12.30
2023-01-11T19:59:50.079Z,12.25
2023-01-11T20:04:53.643Z,12.22
2023-01-11T20:09:57.985Z,12.17
2023-01-11T20:15:08.080Z,12.17
2023-01-11T20:20:14.507Z,12.12
2023-01-11T20:25:19.251Z,12.12
2023-01-11T20:30:23.723Z,12.11
2023-01-11T20:35:28.582Z,12.07
2023-01-11T20:40:31.858Z,12.03
2023-01-11T20:45:35.171Z,12.05
2023-01-11T20:50:39.332Z,12.01
2023-01-11T20:55:42.480Z,11.98
2023-01-11T21:00:45.629Z,11.94
2023-01-11T21:05:48.984Z,11.93
2023-01-11T21:10:53.203Z,11.90
2023-01-11T21:15:56.814Z,11.87
2023-01-11T21:21:05.234Z,11.81
2023-01-11T21:26:23.260Z,11.77
2023-01-11T21:31:32.424Z,11.72
2023-01-11T21:36:35.911Z,11.67
2023-01-11T21:41:39.629Z,11.62
2023-01-11T21:46:42.999Z,11.60
2023-01-11T21:51:46.454Z,11.59
2023-01-11T21:56:50.599Z,11.60
2023-01-11T22:01:54.197Z,11.64
2023-01-11T22:06:59.186Z,11.68
2023-01-11T22:12:03.197Z,11.69
2023-01-11T22:17:07.660Z,11.68
2023-01-11T22:22:12.173Z,11.62
2023-01-11T22:27:15.538Z,11.61
2023-01-11T22:32:19.150Z,11.57
2023-01-11T22:37:23.210Z,11.49
2023-01-11T22:42:27.009Z,11.39
2023-01-11T22:47:30.405Z,11.26
2023-01-11T22:52:33.683Z,11.18
2023-01-11T22:57:36.957Z,11.13
2023-01-11T23:02:40.307Z,11.08
2023-01-11T23:07:43.993Z,11.02
2023-01-11T23:12:47.648Z,10.99
2023-01-11T23:17:51.033Z,11.08
2023-01-11T23:22:54.182Z,11.08
2023-01-11T23:27:57.238Z,11.13
2023-01-11T23:33:00.586Z,11.14
2023-01-11T23:38:03.908Z,11.07
2023-01-11T23:43:07.205Z,10.99
2023-01-11T23:48:10.457Z,10.94
2023-01-11T23:53:15.021Z,10.87
2023-01-11T23:58:18.050Z,10.79
